Time;durP1;ratioP1;P1;durP2;ratioP2;P2;SDS_P1;SDS_P2;PMS_P1;PMS_P2;Temp;Humidity;BMP_temperature;BMP_pressure;BME280_temperature;BME280_humidity;BME280_pressure;Samples;Min_cycle;Max_cycle;Signal;HPM_P1;HPM_P2
2021/12/15 00:01:57;;;;;;;23.27;20.52;;;;;;;5.63;79.33;99996.47;4190820;28;20246;-48
2021/12/15 00:03:59;;;;;;;24.27;19.20;;;;;;;5.64;79.26;99992.72;4158585;28;20240;-48
2021/12/15 00:06:01;;;;;;;20.40;18.48;;;;;;;5.68;79.09;99999.44;4177358;28;20564;-49
2021/12/15 00:08:07;;;;;;;21.65;18.83;;;;;;;5.59;79.61;99992.41;4159198;28;20208;-48
2021/12/15 00:10:09;;;;;;;22.85;20.55;;;;;;;5.57;79.61;99986.31;4187870;28;20677;-48
2021/12/15 00:12:14;;;;;;;23.08;19.20;;;;;;;5.61;79.22;99987.63;4157355;28;20721;-49
2021/12/15 00:14:18;;;;;;;22.92;18.25;;;;;;;5.55;79.45;99983.78;4158384;28;20229;-48
2021/12/15 00:16:20;;;;;;;26.70;20.45;;;;;;;5.53;79.72;99980.41;4175505;28;20208;-49
2021/12/15 00:18:22;;;;;;;23.60;20.38;;;;;;;5.54;79.60;99975.81;4192183;28;20199;-48
2021/12/15 00:20:25;;;;;;;29.42;22.52;;;;;;;5.57;79.92;99991.75;4158769;28;20225;-47
2021/12/15 00:22:26;;;;;;;25.27;19.73;;;;;;;5.51;79.67;99981.63;4175816;28;20236;-48
2021/12/15 00:24:28;;;;;;;22.40;20.17;;;;;;;5.47;79.92;99985.72;4157605;28;20229;-48
2021/12/15 00:26:30;;;;;;;22.23;19.90;;;;;;;5.46;79.89;99987.59;4176026;28;20754;-48
2021/12/15 00:28:32;;;;;;;25.45;20.95;;;;;;;5.47;79.66;99993.84;4157251;28;20657;-49
2021/12/15 00:30:35;;;;;;;21.60;19.42;;;;;;;5.46;79.85;99990.31;4189279;28;20231;-48
2021/12/15 00:32:37;;;;;;;23.33;20.83;;;;;;;5.45;79.84;99993.19;4169959;28;20215;-48
2021/12/15 00:34:40;;;;;;;22.85;19.98;;;;;;;5.42;79.78;99994.41;4156835;28;20224;-48
2021/12/15 00:36:44;;;;;;;19.67;17.95;;;;;;;5.44;79.88;99986.09;4153609;28;20209;-48
2021/12/15 00:38:45;;;;;;;22.33;19.88;;;;;;;5.48;79.42;99990.97;4189217;28;20295;-48
2021/12/15 00:40:48;;;;;;;26.10;20.75;;;;;;;5.39;79.61;99988.50;4191159;28;20216;-48
2021/12/15 00:42:50;;;;;;;22.45;20.42;;;;;;;5.36;79.66;99988.88;4156992;28;20264;-49
2021/12/15 00:44:52;;;;;;;23.05;20.75;;;;;;;5.35;79.76;99988.00;4161112;28;20284;-49
2021/12/15 00:46:54;;;;;;;26.25;20.08;;;;;;;5.33;79.83;99983.78;4159948;28;20212;-48
2021/12/15 00:48:57;;;;;;;21.52;19.42;;;;;;;5.31;79.93;99988.56;4190986;28;20215;-48
2021/12/15 00:50:59;;;;;;;20.85;18.85;;;;;;;5.28;79.47;99986.19;4159253;28;20208;-49
2021/12/15 00:53:02;;;;;;;20.33;18.27;;;;;;;5.27;79.87;99989.94;4158283;28;20235;-48
2021/12/15 00:55:07;;;;;;;19.98;18.17;;;;;;;5.28;79.60;99987.03;4189970;28;20232;-49
2021/12/15 00:57:09;;;;;;;27.58;20.15;;;;;;;5.38;79.31;99987.66;4156009;28;20205;-49
2021/12/15 00:59:11;;;;;;;20.05;17.92;;;;;;;5.29;79.29;99993.34;4155861;28;20223;-49
2021/12/15 01:01:12;;;;;;;20.88;18.75;;;;;;;5.23;79.63;99994.06;4168247;28;20584;-49
2021/12/15 01:03:15;;;;;;;22.35;19.27;;;;;;;5.14;79.79;99990.53;4159171;28;20263;-48
2021/12/15 01:05:19;;;;;;;20.70;18.77;;;;;;;5.15;80.10;99985.97;4157415;28;20248;-48
2021/12/15 01:07:21;;;;;;;24.27;18.52;;;;;;;5.13;79.89;99988.00;4160084;28;20229;-48
2021/12/15 01:09:27;;;;;;;21.05;19.17;;;;;;;5.16;79.61;99990.38;4173594;28;20204;-48
2021/12/15 01:21:18;;;;;;;22.30;17.55;;;;;;;5.03;79.77;99994.69;4156129;28;20224;-48
2021/12/15 01:23:23;;;;;;;19.50;17.75;;;;;;;5.07;79.28;99989.56;4173457;28;20212;-48
2021/12/15 01:25:31;;;;;;;18.63;16.58;;;;;;;4.95;79.31;99989.31;4154867;28;20212;-48
2021/12/15 01:27:33;;;;;;;19.42;17.38;;;;;;;4.90;79.92;99995.28;4156784;28;20200;-48
2021/12/15 01:29:35;;;;;;;19.25;17.38;;;;;;;4.86;80.08;99993.94;4170683;28;20304;-49
2021/12/15 01:31:37;;;;;;;17.52;15.82;;;;;;;4.85;79.83;99994.09;4188983;28;20210;-49
2021/12/15 01:33:40;;;;;;;18.67;17.00;;;;;;;4.81;79.71;99999.03;4156512;28;20725;-48
2021/12/15 01:35:44;;;;;;;17.67;15.85;;;;;;;4.79;79.51;99995.66;4174750;28;20235;-48
2021/12/15 01:37:47;;;;;;;17.80;16.02;;;;;;;4.75;79.50;99997.06;4156332;28;20212;-49
2021/12/15 01:39:53;;;;;;;17.73;16.23;;;;;;;4.72;79.95;100000.09;4155357;28;20232;-47
2021/12/15 01:41:56;;;;;;;16.75;15.27;;;;;;;4.68;79.63;99998.75;4190271;28;20207;-48
2021/12/15 01:48:27;;;;;;;17.17;15.57;;;;;;;4.63;79.67;100006.59;4159431;28;20629;-49
2021/12/15 01:50:29;;;;;;;17.40;15.68;;;;;;;4.62;79.74;100004.06;4156765;28;20208;-48
2021/12/15 01:52:34;;;;;;;20.00;15.82;;;;;;;4.58;79.43;100003.56;4185154;28;20228;-48
2021/12/15 01:54:37;;;;;;;17.08;15.55;;;;;;;4.54;79.13;100023.88;4158971;28;20220;-48
2021/12/15 01:56:39;;;;;;;17.55;15.85;;;;;;;4.50;79.11;100011.72;4175703;28;20688;-49
2021/12/15 01:58:41;;;;;;;16.83;15.10;;;;;;;4.47;79.47;100022.06;4156445;28;20270;-48
2021/12/15 02:00:48;;;;;;;16.40;14.90;;;;;;;4.41;79.31;100023.59;4155332;28;20259;-48
2021/12/15 02:02:52;;;;;;;17.40;15.65;;;;;;;4.35;79.20;100016.16;4153122;28;20201;-47
2021/12/15 02:04:55;;;;;;;19.75;17.08;;;;;;;4.35;79.94;100016.16;4189011;28;20790;-48
2021/12/15 02:06:57;;;;;;;18.10;16.20;;;;;;;4.35;79.69;100013.44;4155358;28;20216;-48
2021/12/15 02:08:59;;;;;;;16.33;14.63;;;;;;;4.37;79.35;100016.84;4187952;28;20679;-49
2021/12/15 02:11:01;;;;;;;15.98;14.43;;;;;;;4.38;79.63;100013.13;4171824;28;20242;-48
2021/12/15 02:13:05;;;;;;;18.10;15.68;;;;;;;4.40;79.66;100012.94;4155414;28;20989;-49
2021/12/15 02:15:31;;;;;;;16.67;15.10;;;;;;;4.43;79.16;100009.88;4155436;28;20283;-48
2021/12/15 02:17:33;;;;;;;17.58;16.02;;;;;;;4.42;79.51;100008.19;4187244;28;20203;-49
2021/12/15 02:19:35;;;;;;;17.80;16.05;;;;;;;4.40;79.12;100000.22;4156954;28;20284;-49
2021/12/15 02:21:37;;;;;;;20.27;15.48;;;;;;;4.39;79.26;100008.56;4158210;28;20197;-49
2021/12/15 02:23:45;;;;;;;19.63;17.60;;;;;;;4.40;79.06;100004.81;4143373;28;20205;-48
2021/12/15 02:25:49;;;;;;;17.02;15.45;;;;;;;4.42;79.23;100009.06;4187576;28;20218;-48
2021/12/15 02:27:51;;;;;;;17.85;16.13;;;;;;;4.43;79.07;100013.44;4188737;28;20207;-48
2021/12/15 02:29:59;;;;;;;19.10;17.10;;;;;;;4.45;79.56;100003.28;4176054;28;20672;-48
2021/12/15 02:32:15;;;;;;;19.27;14.95;;;;;;;4.49;79.15;100012.75;4155990;28;20212;-48
2021/12/15 02:38:47;;;;;;;18.77;14.27;;;;;;;4.50;79.21;100017.16;4158616;28;20208;-48
2021/12/15 02:40:49;;;;;;;17.58;15.82;;;;;;;4.51;79.29;100024.25;4171604;28;20209;-49
2021/12/15 02:42:51;;;;;;;17.52;15.80;;;;;;;4.53;79.38;100015.97;4173332;28;20629;-50
2021/12/15 02:44:54;;;;;;;21.50;16.38;;;;;;;4.52;79.40;100019.66;4154670;28;20290;-48
2021/12/15 02:46:56;;;;;;;18.05;15.13;;;;;;;4.52;79.14;100023.22;4155698;28;20205;-48
2021/12/15 02:48:58;;;;;;;24.73;18.42;;;;;;;4.54;79.46;100017.66;4159658;28;20212;-50
2021/12/15 02:51:00;;;;;;;21.63;18.23;;;;;;;4.55;79.43;100020.19;4158701;28;20266;-48
2021/12/15 02:53:03;;;;;;;32.90;20.15;;;;;;;4.54;79.03;100014.94;4158252;28;20233;-48
2021/12/15 02:55:06;;;;;;;25.20;18.65;;;;;;;4.56;79.19;100016.44;4155471;28;20307;-48
2021/12/15 02:57:13;;;;;;;44.78;19.35;;;;;;;4.54;79.46;100013.03;4158254;28;20200;-48
2021/12/15 02:59:16;;;;;;;28.23;16.88;;;;;;;4.57;79.60;100022.69;4187648;28;20207;-49
2021/12/15 03:01:29;;;;;;;18.05;16.25;;;;;;;4.61;79.41;100019.47;4155927;28;20655;-49
2021/12/15 03:05:57;;;;;;;17.67;16.13;;;;;;;4.52;79.43;100009.69;4157861;28;20658;-48
2021/12/15 03:08:25;;;;;;;27.20;14.23;;;;;;;4.50;79.46;100006.31;4161175;28;20235;-47
2021/12/15 03:17:24;;;;;;;28.15;17.13;;;;;;;4.33;80.19;100015.50;4162826;28;20570;-48
2021/12/15 03:19:26;;;;;;;32.47;16.95;;;;;;;4.21;80.32;100014.16;4176193;28;20204;-49
2021/12/15 03:21:28;;;;;;;20.17;17.27;;;;;;;4.21;80.39;100016.88;4158231;28;20286;-48
2021/12/15 03:23:40;;;;;;;90.75;18.02;;;;;;;4.22;80.43;100013.19;4191230;28;20219;-50
2021/12/15 03:25:42;;;;;;;19.70;17.30;;;;;;;4.22;80.96;100013.19;4175894;28;20250;-48
2021/12/15 03:35:05;;;;;;;15.70;14.40;;;;;;;4.33;80.72;100010.06;4157421;28;20251;-48
2021/12/15 03:39:28;;;;;;;18.48;15.68;;;;;;;4.35;80.49;100018.88;4160107;28;20200;-48
2021/12/15 03:41:30;;;;;;;34.10;15.25;;;;;;;4.34;79.89;100022.59;4176036;28;20893;-48
2021/12/15 03:43:33;;;;;;;43.13;14.38;;;;;;;4.32;80.00;100019.22;4157368;28;20662;-48
2021/12/15 03:45:41;;;;;;;16.73;15.13;;;;;;;4.40;80.02;100019.19;4169748;28;20259;-48
2021/12/15 03:47:46;;;;;;;15.80;14.50;;;;;;;4.34;80.42;100019.06;4143791;28;20667;-48
2021/12/15 03:49:48;;;;;;;15.43;14.23;;;;;;;4.28;80.53;100015.16;4174029;28;20205;-48
2021/12/15 03:51:50;;;;;;;14.20;12.73;;;;;;;4.30;80.39;100021.28;4188663;28;20233;-48
2021/12/15 03:53:52;;;;;;;16.67;15.32;;;;;;;4.30;80.04;100026.69;4186926;28;20293;-49
2021/12/15 03:55:54;;;;;;;14.95;13.70;;;;;;;4.31;80.17;100025.69;4158559;28;20303;-48
2021/12/15 03:57:58;;;;;;;15.07;13.73;;;;;;;4.34;80.26;100032.63;4188494;28;20289;-48
2021/12/15 04:00:01;;;;;;;15.68;14.27;;;;;;;4.33;80.42;100030.94;4160420;28;20208;-48
2021/12/15 04:02:03;;;;;;;16.20;14.90;;;;;;;4.33;80.40;100029.03;4160652;28;20215;-48
2021/12/15 04:04:06;;;;;;;24.30;14.13;;;;;;;4.30;79.55;100026.69;4158598;28;20675;-49
2021/12/15 04:06:14;;;;;;;13.93;12.40;;;;;;;4.31;80.22;100033.81;4157968;28;20220;-49
2021/12/15 04:08:16;;;;;;;13.18;12.02;;;;;;;4.31;79.88;100028.38;4160123;28;20827;-47
2021/12/15 04:10:21;;;;;;;14.00;12.90;;;;;;;4.32;80.23;100032.78;4190998;28;20211;-48
2021/12/15 04:12:23;;;;;;;14.18;12.48;;;;;;;4.29;79.82;100035.84;4173087;28;20211;-49
2021/12/15 04:14:31;;;;;;;14.70;13.40;;;;;;;4.33;79.82;100026.34;4159753;28;20234;-48
2021/12/15 04:18:36;;;;;;;14.52;12.27;;;;;;;4.24;79.57;100027.38;4159936;28;20204;-48
2021/12/15 04:20:38;;;;;;;13.45;12.30;;;;;;;4.26;79.66;100027.22;4173852;28;20236;-48
2021/12/15 04:22:41;;;;;;;14.10;13.00;;;;;;;4.24;79.87;100027.38;4156300;28;20201;-48
2021/12/15 04:24:43;;;;;;;31.08;11.68;;;;;;;4.22;79.63;100034.84;4155047;28;20975;-48
2021/12/15 04:26:46;;;;;;;12.75;11.18;;;;;;;4.24;80.17;100032.81;4160363;28;20213;-50
2021/12/15 04:28:48;;;;;;;13.70;12.45;;;;;;;4.26;79.82;100040.78;4188986;28;20207;-49
2021/12/15 04:30:53;;;;;;;13.38;12.27;;;;;;;4.26;80.03;100036.19;4159099;28;20651;-48
2021/12/15 04:32:57;;;;;;;13.63;12.35;;;;;;;4.25;80.05;100033.63;4191742;28;20218;-50
2021/12/15 04:34:59;;;;;;;12.95;11.85;;;;;;;4.22;79.65;100040.28;4190357;28;20597;-50
2021/12/15 04:37:01;;;;;;;13.15;12.02;;;;;;;4.27;79.37;100039.75;4170659;28;20231;-47
2021/12/15 04:39:04;;;;;;;14.05;12.85;;;;;;;4.22;80.12;100042.97;4157359;28;20200;-48
2021/12/15 04:41:11;;;;;;;12.90;11.75;;;;;;;4.23;79.54;100041.09;4156994;28;20212;-49
2021/12/15 04:43:35;;;;;;;12.07;11.18;;;;;;;4.25;79.32;100048.03;4183683;28;20738;-48
2021/12/15 04:45:37;;;;;;;12.48;11.38;;;;;;;4.22;79.82;100047.53;4174425;28;20708;-48
2021/12/15 04:47:38;;;;;;;12.82;11.82;;;;;;;4.24;79.72;100043.63;4173636;28;20271;-49
2021/12/15 04:49:44;;;;;;;13.43;12.32;;;;;;;4.20;79.74;100047.69;4157155;28;20197;-48
2021/12/15 04:51:47;;;;;;;11.70;10.82;;;;;;;4.15;79.93;100044.66;4156869;28;20215;-48
2021/12/15 04:53:49;;;;;;;12.18;11.18;;;;;;;4.15;79.23;100039.22;4155994;28;20362;-48
2021/12/15 04:55:51;;;;;;;12.50;11.50;;;;;;;4.13;79.39;100046.69;4158596;28;20209;-48
2021/12/15 04:57:53;;;;;;;12.43;11.45;;;;;;;4.10;79.59;100047.06;4157932;28;20205;-48
2021/12/15 04:59:55;;;;;;;75.65;12.27;;;;;;;4.23;79.10;100058.22;4157217;28;20295;-48
2021/12/15 05:01:57;;;;;;;32.05;12.07;;;;;;;4.14;78.75;100053.81;4158890;28;20670;-48
2021/12/15 05:03:59;;;;;;;10.52;9.70;;;;;;;4.02;78.98;100048.91;4158282;28;20232;-49
2021/12/15 05:06:02;;;;;;;12.05;11.05;;;;;;;4.01;79.65;100045.34;4158257;28;20213;-48
2021/12/15 05:08:05;;;;;;;17.20;13.05;;;;;;;4.13;79.55;100052.13;4193464;28;20286;-49
2021/12/15 05:10:08;;;;;;;10.20;9.50;;;;;;;4.12;78.81;100050.44;4174562;28;20240;-48
2021/12/15 05:12:10;;;;;;;13.10;11.48;;;;;;;3.93;79.30;100052.66;4158284;28;20244;-48
2021/12/15 05:14:12;;;;;;;11.88;10.73;;;;;;;3.82;79.37;100051.16;4156204;28;20680;-50
2021/12/15 05:16:16;;;;;;;36.10;12.68;;;;;;;3.83;78.87;100054.69;4154218;28;20270;-49
2021/12/15 05:18:18;;;;;;;13.50;9.57;;;;;;;3.81;79.56;100056.72;4159991;28;20584;-49
2021/12/15 05:20:22;;;;;;;19.83;11.65;;;;;;;3.80;79.64;100053.16;4157253;28;20757;-49
2021/12/15 05:22:24;;;;;;;14.57;10.82;;;;;;;3.85;79.54;100058.06;4157989;28;20212;-49
2021/12/15 05:26:31;;;;;;;15.73;9.98;;;;;;;3.80;79.53;100055.88;4154635;28;20211;-49
2021/12/15 05:28:33;;;;;;;15.68;10.75;;;;;;;3.78;79.82;100057.03;4157182;28;20239;-48
2021/12/15 05:30:35;;;;;;;37.72;12.77;;;;;;;3.74;80.03;100058.41;4157893;28;20291;-49
2021/12/15 05:32:37;;;;;;;16.58;13.35;;;;;;;3.67;79.72;100060.13;4171380;28;20238;-49
2021/12/15 05:34:40;;;;;;;37.17;12.20;;;;;;;3.65;79.98;100056.69;4185541;28;20227;-48
2021/12/15 05:36:43;;;;;;;30.77;13.88;;;;;;;3.59;80.21;100054.66;4185998;28;20597;-49
2021/12/15 05:38:44;;;;;;;24.08;14.40;;;;;;;3.67;80.79;100058.22;4149825;28;20205;-49
2021/12/15 05:40:47;;;;;;;17.38;13.77;;;;;;;3.55;81.09;100064.97;4170906;28;20581;-48
2021/12/15 05:42:48;;;;;;;32.75;13.68;;;;;;;3.50;80.67;100063.81;4154699;28;20275;-50
2021/12/15 05:44:50;;;;;;;15.55;14.05;;;;;;;3.65;80.65;100060.28;4158286;28;20228;-50
2021/12/15 05:46:54;;;;;;;14.82;13.48;;;;;;;3.59;80.47;100062.78;4169811;28;20200;-48
2021/12/15 05:48:55;;;;;;;14.35;13.10;;;;;;;3.62;80.60;100066.03;4151356;28;20303;-48
2021/12/15 05:50:57;;;;;;;21.67;14.15;;;;;;;3.65;80.36;100062.97;4169006;28;20550;-48
2021/12/15 05:53:01;;;;;;;18.77;12.68;;;;;;;3.62;80.56;100063.34;4184608;28;20668;-48
2021/12/15 05:55:05;;;;;;;14.50;13.20;;;;;;;3.59;80.47;100063.66;4154617;28;20278;-49
2021/12/15 05:57:07;;;;;;;15.75;14.15;;;;;;;3.58;80.69;100067.38;4153663;28;20231;-48
2021/12/15 05:59:10;;;;;;;14.32;13.05;;;;;;;3.56;80.44;100071.25;4172193;28;20298;-50
2021/12/15 06:01:11;;;;;;;14.43;13.13;;;;;;;3.55;80.39;100078.50;4145482;28;20235;-49
2021/12/15 06:03:14;;;;;;;13.55;12.40;;;;;;;3.61;80.18;100077.84;4156265;28;20232;-48
2021/12/15 06:05:16;;;;;;;13.88;12.63;;;;;;;3.65;80.84;100079.22;4152829;28;20729;-48
2021/12/15 06:07:18;;;;;;;12.77;11.32;;;;;;;3.67;80.57;100082.59;4154754;28;20255;-49
2021/12/15 06:09:19;;;;;;;18.42;13.02;;;;;;;3.67;80.09;100082.59;4155062;28;20605;-49
2021/12/15 06:11:21;;;;;;;15.88;13.73;;;;;;;3.61;80.77;100094.09;4153163;28;20296;-49
2021/12/15 06:13:26;;;;;;;20.75;12.85;;;;;;;3.57;79.92;100089.19;4154201;28;20212;-48
2021/12/15 06:15:29;;;;;;;13.23;12.07;;;;;;;3.61;80.63;100093.25;4171516;28;20255;-48
2021/12/15 06:17:31;;;;;;;14.57;12.93;;;;;;;3.57;80.12;100097.31;4187146;28;20281;-49
2021/12/15 06:19:33;;;;;;;13.23;12.10;;;;;;;3.60;80.26;100089.69;4156617;28;20227;-48
2021/12/15 06:21:34;;;;;;;13.43;12.10;;;;;;;3.63;80.08;100081.25;4174604;28;20556;-49
2021/12/15 06:23:37;;;;;;;128.00;14.82;;;;;;;3.58;80.61;100094.44;4165887;28;20277;-49
2021/12/15 06:25:40;;;;;;;12.45;11.48;;;;;;;3.62;80.44;100095.81;4156646;28;20232;-48
2021/12/15 06:27:41;;;;;;;45.00;13.95;;;;;;;3.53;80.27;100096.78;4157541;28;20232;-49
2021/12/15 06:29:43;;;;;;;13.55;12.35;;;;;;;3.53;80.23;100094.09;4170275;28;20204;-48
2021/12/15 06:31:45;;;;;;;14.13;12.95;;;;;;;3.57;80.01;100098.16;4167092;28;20248;-50
2021/12/15 06:33:47;;;;;;;15.77;12.35;;;;;;;3.57;79.95;100106.28;4155232;28;20235;-51
2021/12/15 06:35:54;;;;;;;12.35;11.38;;;;;;;3.61;80.44;100115.75;4170244;28;20215;-50
2021/12/15 06:37:56;;;;;;;16.45;11.35;;;;;;;3.64;80.07;100110.00;4154033;28;20286;-49
2021/12/15 06:39:57;;;;;;;12.63;11.63;;;;;;;3.63;80.63;100111.03;4158294;28;20236;-49
2021/12/15 06:41:59;;;;;;;12.38;11.38;;;;;;;3.65;80.24;100114.41;4187083;28;20207;-50
2021/12/15 06:44:01;;;;;;;14.23;11.88;;;;;;;3.67;80.46;100125.91;4155188;28;20220;-51
2021/12/15 06:46:36;;;;;;;11.95;10.98;;;;;;;3.66;80.36;100121.50;4156639;28;20380;-49
2021/12/15 06:58:15;;;;;;;14.10;12.90;;;;;;;3.63;79.95;100146.22;4158693;28;20251;-51
2021/12/15 07:00:18;;;;;;;49.47;11.35;;;;;;;3.55;80.13;100142.63;4157081;28;20200;-49
2021/12/15 07:02:20;;;;;;;28.67;11.30;;;;;;;3.51;79.90;100149.38;4173586;28;20250;-49
2021/12/15 07:04:24;;;;;;;223.57;17.50;;;;;;;3.46;80.00;100165.28;4191515;28;20746;-50
2021/12/15 07:06:28;;;;;;;12.40;11.25;;;;;;;3.47;80.54;100159.69;4159860;28;20240;-51
2021/12/15 07:08:31;;;;;;;13.35;10.90;;;;;;;3.48;80.00;100152.44;4156368;28;20205;-49
2021/12/15 07:10:35;;;;;;;15.15;11.02;;;;;;;3.49;80.28;100144.16;4159127;28;20456;-48
2021/12/15 07:12:37;;;;;;;11.45;10.25;;;;;;;3.54;80.10;100163.44;4165809;28;20274;-49
2021/12/15 07:15:05;;;;;;;12.73;11.52;;;;;;;3.54;79.68;100162.59;4161835;28;20291;-50
2021/12/15 07:17:28;;;;;;;11.85;10.82;;;;;;;3.58;80.03;100162.09;4162398;28;20220;-50
2021/12/15 07:20:06;;;;;;;11.48;10.50;;;;;;;3.56;80.22;100158.72;4173120;28;20231;-48
2021/12/15 07:22:32;;;;;;;11.98;10.93;;;;;;;3.57;80.13;100167.66;4164482;28;20288;-48
2021/12/15 07:24:38;;;;;;;12.10;11.00;;;;;;;3.57;79.79;100168.53;4192273;28;20230;-49
2021/12/15 07:26:40;;;;;;;12.23;11.23;;;;;;;3.59;79.98;100161.06;4178852;28;20214;-48
2021/12/15 07:28:41;;;;;;;18.00;10.80;;;;;;;3.59;80.31;100166.50;4133677;28;20240;-48
2021/12/15 07:30:44;;;;;;;50.15;11.95;;;;;;;3.45;79.60;100159.00;4146389;28;20229;-48
2021/12/15 07:33:06;;;;;;;37.55;11.18;;;;;;;3.58;80.10;100175.63;4161869;28;20562;-49
2021/12/15 07:35:25;;;;;;;12.35;11.27;;;;;;;3.57;79.86;100173.94;4141914;28;20226;-50
2021/12/15 07:37:35;;;;;;;10.63;9.63;;;;;;;3.48;79.94;100174.91;4163088;28;20220;-50
2021/12/15 07:40:18;;;;;;;11.75;10.68;;;;;;;3.57;80.19;100182.06;4165632;28;20626;-49
2021/12/15 07:42:42;;;;;;;28.33;10.02;;;;;;;3.48;80.17;100185.72;4162238;28;20236;-49
2021/12/15 07:44:58;;;;;;;38.55;11.32;;;;;;;3.37;79.80;100191.47;4177665;28;20235;-49
2021/12/15 07:47:21;;;;;;;11.40;10.40;;;;;;;3.43;79.74;100192.66;4176185;28;20818;-52
2021/12/15 07:49:44;;;;;;;12.00;10.90;;;;;;;3.41;80.19;100198.22;4158718;28;20208;-49
2021/12/15 07:52:10;;;;;;;11.38;10.25;;;;;;;3.35;80.14;100198.88;4160392;28;20388;-49
2021/12/15 07:54:35;;;;;;;10.60;9.63;;;;;;;3.48;79.54;100204.66;4176588;28;20223;-50
2021/12/15 07:56:56;;;;;;;22.88;10.48;;;;;;;3.39;79.53;100208.38;4193117;28;20665;-50
2021/12/15 07:58:58;;;;;;;19.70;9.63;;;;;;;3.36;80.29;100203.28;4160001;28;20329;-49
2021/12/15 08:01:02;;;;;;;11.45;10.18;;;;;;;3.41;79.83;100209.03;4160919;28;20212;-49
2021/12/15 08:03:06;;;;;;;11.88;10.77;;;;;;;3.48;79.77;100207.38;4159559;28;20204;-52
2021/12/15 08:05:10;;;;;;;11.10;10.20;;;;;;;3.53;79.80;100210.44;4189605;28;20219;-49
2021/12/15 08:07:17;;;;;;;11.43;10.20;;;;;;;3.60;79.77;100211.47;4160573;28;20203;-49
2021/12/15 08:09:20;;;;;;;24.23;10.95;;;;;;;3.54;80.31;100205.88;4162096;28;20232;-49
2021/12/15 08:11:24;;;;;;;22.23;11.35;;;;;;;3.59;80.09;100204.38;4163212;28;20250;-48
2021/12/15 08:13:27;;;;;;;25.00;11.45;;;;;;;3.55;80.03;100208.41;4161964;28;20634;-50
2021/12/15 08:15:29;;;;;;;54.92;10.32;;;;;;;3.62;79.67;100214.88;4159886;28;20236;-49
2021/12/15 08:17:30;;;;;;;20.15;9.93;;;;;;;3.63;80.11;100216.59;4172500;28;20255;-50
2021/12/15 08:19:48;;;;;;;9.77;8.88;;;;;;;3.67;79.84;100217.94;4161287;28;20197;-50
2021/12/15 08:21:50;;;;;;;12.50;9.35;;;;;;;3.72;79.42;100223.69;4177238;28;20191;-47
2021/12/15 08:23:52;;;;;;;12.90;8.88;;;;;;;3.84;79.06;100219.69;4162765;28;20204;-51
2021/12/15 08:25:54;;;;;;;11.18;10.07;;;;;;;3.85;79.51;100229.50;4139063;28;20750;-49
2021/12/15 08:27:56;;;;;;;10.93;10.02;;;;;;;3.83;79.19;100223.41;4155026;28;20205;-51
2021/12/15 08:29:58;;;;;;;10.52;9.27;;;;;;;3.89;79.72;100225.44;4157270;28;20209;-51
2021/12/15 08:32:03;;;;;;;15.38;11.95;;;;;;;3.75;79.35;100231.47;4156946;28;20243;-50
2021/12/15 08:34:08;;;;;;;12.13;10.90;;;;;;;3.79;79.30;100227.44;4158832;28;20265;-50
2021/12/15 08:36:11;;;;;;;12.32;11.18;;;;;;;3.81;79.55;100230.00;4164297;28;20208;-51
2021/12/15 08:38:13;;;;;;;13.68;12.15;;;;;;;3.79;79.22;100235.56;4173833;28;20224;-50
2021/12/15 08:40:17;;;;;;;13.68;12.43;;;;;;;3.88;78.81;100241.84;4159972;28;20216;-51
2021/12/15 08:42:18;;;;;;;13.65;12.32;;;;;;;3.91;79.41;100231.53;4162096;28;20215;-51
2021/12/15 08:44:20;;;;;;;14.15;12.60;;;;;;;3.95;78.83;100234.75;4157683;28;20286;-51
2021/12/15 08:46:29;;;;;;;14.02;12.65;;;;;;;3.94;79.02;100236.59;4160537;28;20201;-50
2021/12/15 08:48:32;;;;;;;14.30;13.00;;;;;;;3.95;79.30;100232.88;4186982;28;20207;-52
2021/12/15 08:50:40;;;;;;;11.77;10.65;;;;;;;3.98;79.40;100232.56;4189470;28;20230;-49
2021/12/15 08:52:42;;;;;;;13.27;11.90;;;;;;;4.06;79.14;100234.44;4159834;28;20200;-49
2021/12/15 08:54:44;;;;;;;11.23;10.23;;;;;;;4.04;78.85;100237.31;4173614;28;20259;-49
2021/12/15 08:56:47;;;;;;;13.65;11.32;;;;;;;4.05;79.15;100239.00;4170562;28;20208;-52
2021/12/15 08:58:49;;;;;;;12.15;11.02;;;;;;;4.03;79.46;100230.22;4188333;28;20235;-51
2021/12/15 09:00:53;;;;;;;12.48;11.32;;;;;;;4.09;78.67;100232.25;4186452;28;20212;-50
2021/12/15 09:02:55;;;;;;;12.35;11.13;;;;;;;4.13;79.15;100235.47;4159283;28;20213;-51
2021/12/15 09:04:57;;;;;;;13.15;11.85;;;;;;;4.19;78.83;100230.22;4158496;28;20667;-50
2021/12/15 09:06:59;;;;;;;15.38;12.23;;;;;;;4.23;79.24;100231.59;4156636;28;20268;-51
2021/12/15 09:09:06;;;;;;;13.05;11.32;;;;;;;4.29;78.81;100230.06;4156858;28;20200;-50
2021/12/15 09:11:12;;;;;;;11.82;10.82;;;;;;;4.29;79.10;100230.94;4173148;28;20724;-51
2021/12/15 09:13:14;;;;;;;11.55;10.55;;;;;;;4.33;78.91;100236.84;4171931;28;20200;-51
2021/12/15 09:15:16;;;;;;;13.25;12.05;;;;;;;4.23;78.78;100230.72;4157475;28;20748;-48
2021/12/15 09:17:18;;;;;;;14.05;12.75;;;;;;;4.26;78.69;100233.13;4159595;28;20208;-51
2021/12/15 09:19:19;;;;;;;11.98;10.98;;;;;;;4.30;78.96;100237.19;4190230;28;20239;-49
2021/12/15 09:21:25;;;;;;;13.68;12.48;;;;;;;4.37;78.69;100228.22;4156854;28;20202;-50
2021/12/15 09:23:27;;;;;;;13.35;12.05;;;;;;;4.38;78.71;100234.47;4189447;28;20202;-51
2021/12/15 09:25:29;;;;;;;14.57;13.00;;;;;;;4.46;79.24;100238.03;4157095;28;20612;-51
2021/12/15 09:27:31;;;;;;;16.60;15.15;;;;;;;4.55;78.98;100230.75;4189397;28;20200;-50
2021/12/15 09:29:33;;;;;;;13.63;12.52;;;;;;;4.58;79.06;100228.53;4176613;28;20204;-50
2021/12/15 09:31:35;;;;;;;13.65;12.35;;;;;;;4.57;78.83;100235.00;4159001;28;20216;-50
2021/12/15 09:33:38;;;;;;;14.88;13.40;;;;;;;4.64;79.11;100236.00;4157569;28;20213;-51
2021/12/15 09:35:40;;;;;;;18.83;15.57;;;;;;;4.63;78.84;100234.31;4172809;28;20257;-50
2021/12/15 09:37:43;;;;;;;15.27;13.98;;;;;;;4.71;78.64;100236.16;4192521;28;20242;-50
2021/12/15 09:39:46;;;;;;;17.35;13.30;;;;;;;4.71;78.64;100237.00;4174537;28;20282;-49
2021/12/15 09:41:54;;;;;;;16.67;15.02;;;;;;;4.70;78.92;100240.75;4186819;28;20277;-51
2021/12/15 09:43:58;;;;;;;18.88;17.08;;;;;;;4.73;79.29;100232.25;4156867;28;20235;-49
2021/12/15 09:46:06;;;;;;;18.00;16.30;;;;;;;4.83;78.66;100246.50;4152822;28;20229;-50
2021/12/15 10:03:04;;;;;;;16.63;14.65;;;;;;;4.92;78.88;100245.47;4154659;28;20204;-49
2021/12/15 10:11:52;;;;;;;17.52;14.77;;;;;;;4.94;78.48;100237.97;4155039;28;20223;-48
2021/12/15 10:18:53;;;;;;;15.38;14.00;;;;;;;5.13;78.34;100243.03;4155986;28;20312;-49
2021/12/15 10:20:56;;;;;;;16.98;13.82;;;;;;;5.06;78.04;100236.63;4156374;28;20662;-48
2021/12/15 10:23:02;;;;;;;16.20;14.80;;;;;;;5.17;78.06;100228.13;4186880;28;20222;-48
2021/12/15 10:25:16;;;;;;;16.45;14.95;;;;;;;5.14;78.77;100228.44;4188027;28;20226;-49
2021/12/15 10:27:33;;;;;;;16.95;15.23;;;;;;;5.24;78.03;100229.09;4158152;28;20559;-49
2021/12/15 10:29:35;;;;;;;15.93;14.20;;;;;;;5.24;78.29;100229.09;4160561;28;20223;-49
2021/12/15 10:31:37;;;;;;;15.75;14.18;;;;;;;5.31;78.14;100221.97;4191186;28;20211;-48
2021/12/15 10:33:44;;;;;;;17.27;15.68;;;;;;;5.33;77.99;100218.06;4189002;28;20217;-49
2021/12/15 10:35:57;;;;;;;16.20;13.63;;;;;;;5.40;77.97;100220.91;4162434;28;20250;-48
2021/12/15 10:38:20;;;;;;;16.08;14.43;;;;;;;5.45;78.27;100215.78;4176675;28;20251;-50
2021/12/15 10:40:22;;;;;;;14.43;13.05;;;;;;;5.52;77.96;100219.50;4190190;28;20203;-49
2021/12/15 10:42:30;;;;;;;15.30;14.00;;;;;;;5.47;78.43;100220.03;4157456;28;20192;-49
2021/12/15 10:44:32;;;;;;;16.77;15.30;;;;;;;5.56;78.26;100210.00;4174193;28;20247;-48
2021/12/15 10:46:39;;;;;;;16.08;14.68;;;;;;;5.51;78.10;100215.09;4144758;28;20376;-49
2021/12/15 10:49:02;;;;;;;15.25;13.82;;;;;;;5.62;77.32;100220.16;4173558;28;20200;-48
2021/12/15 10:51:44;;;;;;;15.98;14.38;;;;;;;5.55;76.92;100200.16;4175564;28;20196;-48
2021/12/15 10:53:47;;;;;;;16.42;14.68;;;;;;;5.38;77.51;100202.09;4153166;28;20223;-50
2021/12/15 10:55:50;;;;;;;17.02;15.43;;;;;;;5.36;77.79;100197.84;4159804;28;20275;-48